sensor_id;sensor_type;location;lat;lon;timestamp;temperature;humidity
47576;DHT22;33304;52.456;13.328;2023-03-01T00:02:06;1.80;25.30
47576;DHT22;33304;52.456;13.328;2023-03-01T00:04:33;1.80;25.50
47576;DHT22;33304;52.456;13.328;2023-03-01T00:07:01;1.70;25.40
47576;DHT22;33304;52.456;13.328;2023-03-01T00:09:28;1.60;25.40
47576;DHT22;33304;52.456;13.328;2023-03-01T00:11:57;1.70;26.30
47576;DHT22;33304;52.456;13.328;2023-03-01T00:14:24;1.80;25.50
47576;DHT22;33304;52.456;13.328;2023-03-01T00:16:51;1.80;25.70
47576;DHT22;33304;52.456;13.328;2023-03-01T00:19:19;1.70;25.50
47576;DHT22;33304;52.456;13.328;2023-03-01T00:21:48;1.60;25.50
47576;DHT22;33304;52.456;13.328;2023-03-01T00:24:15;1.50;26.00
47576;DHT22;33304;52.456;13.328;2023-03-01T00:26:43;1.50;26.50
47576;DHT22;33304;52.456;13.328;2023-03-01T00:29:11;1.50;26.50
47576;DHT22;33304;52.456;13.328;2023-03-01T00:31:38;1.50;26.50
47576;DHT22;33304;52.456;13.328;2023-03-01T00:34:06;1.60;26.50
47576;DHT22;33304;52.456;13.328;2023-03-01T00:36:35;1.50;27.10
47576;DHT22;33304;52.456;13.328;2023-03-01T00:39:04;1.60;26.50
47576;DHT22;33304;52.456;13.328;2023-03-01T00:41:31;1.50;26.50
47576;DHT22;33304;52.456;13.328;2023-03-01T00:44:00;1.50;26.50
47576;DHT22;33304;52.456;13.328;2023-03-01T00:46:29;1.40;26.40
47576;DHT22;33304;52.456;13.328;2023-03-01T00:48:56;1.40;26.50
47576;DHT22;33304;52.456;13.328;2023-03-01T00:51:26;1.40;26.40
47576;DHT22;33304;52.456;13.328;2023-03-01T00:53:55;1.40;26.40
47576;DHT22;33304;52.456;13.328;2023-03-01T00:56:24;1.50;26.50
47576;DHT22;33304;52.456;13.328;2023-03-01T00:58:51;1.50;26.50
47576;DHT22;33304;52.456;13.328;2023-03-01T01:01:20;1.50;26.50
47576;DHT22;33304;52.456;13.328;2023-03-01T01:03:51;1.50;26.50
47576;DHT22;33304;52.456;13.328;2023-03-01T01:06:20;1.50;26.50
47576;DHT22;33304;52.456;13.328;2023-03-01T01:08:48;1.40;26.50
47576;DHT22;33304;52.456;13.328;2023-03-01T01:11:16;1.50;26.50
47576;DHT22;33304;52.456;13.328;2023-03-01T01:13:44;1.50;26.50
47576;DHT22;33304;52.456;13.328;2023-03-01T01:16:12;1.50;26.50
47576;DHT22;33304;52.456;13.328;2023-03-01T01:18:40;1.40;26.40
47576;DHT22;33304;52.456;13.328;2023-03-01T01:21:11;1.40;26.40
47576;DHT22;33304;52.456;13.328;2023-03-01T01:23:40;1.30;26.50
47576;DHT22;33304;52.456;13.328;2023-03-01T01:26:09;1.30;27.20
47576;DHT22;33304;52.456;13.328;2023-03-01T01:28:37;1.30;27.20
47576;DHT22;33304;52.456;13.328;2023-03-01T01:31:05;1.30;27.00
47576;DHT22;33304;52.456;13.328;2023-03-01T01:33:33;1.30;27.30
47576;DHT22;33304;52.456;13.328;2023-03-01T01:36:00;1.40;27.30
47576;DHT22;33304;52.456;13.328;2023-03-01T01:38:29;1.40;27.10
47576;DHT22;33304;52.456;13.328;2023-03-01T01:40:56;1.30;26.40
47576;DHT22;33304;52.456;13.328;2023-03-01T01:43:25;1.30;27.20
47576;DHT22;33304;52.456;13.328;2023-03-01T01:45:55;1.40;26.90
47576;DHT22;33304;52.456;13.328;2023-03-01T01:48:27;1.40;26.50
47576;DHT22;33304;52.456;13.328;2023-03-01T01:51:09;1.40;26.40
47576;DHT22;33304;52.456;13.328;2023-03-01T01:53:40;1.20;26.40
47576;DHT22;33304;52.456;13.328;2023-03-01T01:56:08;1.30;27.40
47576;DHT22;33304;52.456;13.328;2023-03-01T01:58:38;1.20;27.50
47576;DHT22;33304;52.456;13.328;2023-03-01T02:01:07;1.20;27.50
47576;DHT22;33304;52.456;13.328;2023-03-01T02:03:37;1.10;27.60
47576;DHT22;33304;52.456;13.328;2023-03-01T02:06:12;1.10;27.80
47576;DHT22;33304;52.456;13.328;2023-03-01T02:08:45;0.80;28.40
47576;DHT22;33304;52.456;13.328;2023-03-01T02:11:14;0.70;29.00
47576;DHT22;33304;52.456;13.328;2023-03-01T02:13:41;0.70;29.40
47576;DHT22;33304;52.456;13.328;2023-03-01T02:16:10;0.60;29.90
47576;DHT22;33304;52.456;13.328;2023-03-01T02:18:39;0.50;30.30
47576;DHT22;33304;52.456;13.328;2023-03-01T02:21:17;0.50;30.40
47576;DHT22;33304;52.456;13.328;2023-03-01T02:23:50;0.70;30.50
47576;DHT22;33304;52.456;13.328;2023-03-01T02:26:23;0.70;29.60
47576;DHT22;33304;52.456;13.328;2023-03-01T02:28:53;0.50;30.10
47576;DHT22;33304;52.456;13.328;2023-03-01T02:31:21;0.30;30.70
47576;DHT22;33304;52.456;13.328;2023-03-01T02:34:19;0.30;31.10
47576;DHT22;33304;52.456;13.328;2023-03-01T02:36:48;0.30;31.10
47576;DHT22;33304;52.456;13.328;2023-03-01T02:39:37;0.20;31.60
47576;DHT22;33304;52.456;13.328;2023-03-01T02:42:10;0.30;31.60
47576;DHT22;33304;52.456;13.328;2023-03-01T02:44:39;0.40;31.20
47576;DHT22;33304;52.456;13.328;2023-03-01T02:47:06;0.50;30.70
47576;DHT22;33304;52.456;13.328;2023-03-01T02:49:35;0.70;30.60
47576;DHT22;33304;52.456;13.328;2023-03-01T02:52:34;0.80;30.00
47576;DHT22;33304;52.456;13.328;2023-03-01T02:55:07;0.80;29.80
47576;DHT22;33304;52.456;13.328;2023-03-01T02:57:37;0.80;29.60
47576;DHT22;33304;52.456;13.328;2023-03-01T03:00:08;0.90;29.50
47576;DHT22;33304;52.456;13.328;2023-03-01T03:02:37;0.60;29.60
47576;DHT22;33304;52.456;13.328;2023-03-01T03:05:11;0.60;30.40
47576;DHT22;33304;52.456;13.328;2023-03-01T03:07:41;0.60;30.40
47576;DHT22;33304;52.456;13.328;2023-03-01T03:10:10;0.50;30.30
47576;DHT22;33304;52.456;13.328;2023-03-01T03:12:39;0.40;30.80
47576;DHT22;33304;52.456;13.328;2023-03-01T03:15:09;0.30;31.20
47576;DHT22;33304;52.456;13.328;2023-03-01T03:17:39;0.20;31.90
47576;DHT22;33304;52.456;13.328;2023-03-01T03:20:09;0.10;32.40
47576;DHT22;33304;52.456;13.328;2023-03-01T03:22:38;0.20;32.70
47576;DHT22;33304;52.456;13.328;2023-03-01T03:25:06;0.40;31.50
47576;DHT22;33304;52.456;13.328;2023-03-01T03:27:36;0.40;32.00
47576;DHT22;33304;52.456;13.328;2023-03-01T03:30:05;0.20;32.10
47576;DHT22;33304;52.456;13.328;2023-03-01T03:32:36;0.10;33.00
47576;DHT22;33304;52.456;13.328;2023-03-01T03:35:04;0.00;33.50
47576;DHT22;33304;52.456;13.328;2023-03-01T03:37:36;0.00;33.70
47576;DHT22;33304;52.456;13.328;2023-03-01T03:40:21;-0.10;34.50
47576;DHT22;33304;52.456;13.328;2023-03-01T03:42:48;0.00;34.30
47576;DHT22;33304;52.456;13.328;2023-03-01T03:45:15;0.00;34.10
47576;DHT22;33304;52.456;13.328;2023-03-01T03:47:44;0.00;34.90
47576;DHT22;33304;52.456;13.328;2023-03-01T03:50:12;0.00;34.50
47576;DHT22;33304;52.456;13.328;2023-03-01T03:52:39;0.00;34.60
47576;DHT22;33304;52.456;13.328;2023-03-01T03:58:10;0.10;34.40
47576;DHT22;33304;52.456;13.328;2023-03-01T04:00:39;0.30;33.30
47576;DHT22;33304;52.456;13.328;2023-03-01T04:03:09;0.30;32.60
47576;DHT22;33304;52.456;13.328;2023-03-01T04:05:37;0.30;32.40
47576;DHT22;33304;52.456;13.328;2023-03-01T04:08:05;0.00;32.80
47576;DHT22;33304;52.456;13.328;2023-03-01T04:10:35;-0.10;33.80
47576;DHT22;33304;52.456;13.328;2023-03-01T04:13:03;-0.20;35.00
47576;DHT22;33304;52.456;13.328;2023-03-01T04:15:31;-0.40;35.30
47576;DHT22;33304;52.456;13.328;2023-03-01T04:21:36;-0.40;35.30
47576;DHT22;33304;52.456;13.328;2023-03-01T04:24:04;-0.50;35.30
47576;DHT22;33304;52.456;13.328;2023-03-01T04:26:31;-0.60;36.00
47576;DHT22;33304;52.456;13.328;2023-03-01T04:28:58;-0.60;36.60
47576;DHT22;33304;52.456;13.328;2023-03-01T04:31:25;-0.50;36.60
47576;DHT22;33304;52.456;13.328;2023-03-01T04:33:53;-0.30;35.90
47576;DHT22;33304;52.456;13.328;2023-03-01T04:36:23;-0.30;35.50
47576;DHT22;33304;52.456;13.328;2023-03-01T04:38:52;-0.40;35.30
47576;DHT22;33304;52.456;13.328;2023-03-01T04:41:21;-0.50;35.30
47576;DHT22;33304;52.456;13.328;2023-03-01T04:43:48;-0.60;36.00
47576;DHT22;33304;52.456;13.328;2023-03-01T04:46:17;-0.40;36.20
47576;DHT22;33304;52.456;13.328;2023-03-01T04:49:02;-0.10;35.60
47576;DHT22;33304;52.456;13.328;2023-03-01T04:51:29;-0.20;35.50
47576;DHT22;33304;52.456;13.328;2023-03-01T04:53:59;-0.40;35.30
47576;DHT22;33304;52.456;13.328;2023-03-01T04:56:27;-0.30;35.40
47576;DHT22;33304;52.456;13.328;2023-03-01T04:58:54;-0.10;35.60
47576;DHT22;33304;52.456;13.328;2023-03-01T05:01:21;0.00;34.90
47576;DHT22;33304;52.456;13.328;2023-03-01T05:03:50;0.00;33.80
47576;DHT22;33304;52.456;13.328;2023-03-01T05:06:18;-0.10;33.80
47576;DHT22;33304;52.456;13.328;2023-03-01T05:08:46;-0.30;35.40
47576;DHT22;33304;52.456;13.328;2023-03-01T05:11:41;-0.20;35.50
47576;DHT22;33304;52.456;13.328;2023-03-01T05:14:09;-0.20;35.50
47576;DHT22;33304;52.456;13.328;2023-03-01T05:16:36;-0.20;35.50
47576;DHT22;33304;52.456;13.328;2023-03-01T05:19:04;-0.20;35.50
47576;DHT22;33304;52.456;13.328;2023-03-01T05:21:37;-0.30;35.30
47576;DHT22;33304;52.456;13.328;2023-03-01T05:24:25;-0.40;35.30
47576;DHT22;33304;52.456;13.328;2023-03-01T05:26:54;-0.60;35.20
47576;DHT22;33304;52.456;13.328;2023-03-01T05:29:22;-0.70;36.20
47576;DHT22;33304;52.456;13.328;2023-03-01T05:31:52;-0.70;36.70
47576;DHT22;33304;52.456;13.328;2023-03-01T05:34:23;-0.70;37.00
47576;DHT22;33304;52.456;13.328;2023-03-01T05:36:52;-0.70;36.80
47576;DHT22;33304;52.456;13.328;2023-03-01T05:39:20;-0.70;37.20
47576;DHT22;33304;52.456;13.328;2023-03-01T05:42:09;-0.60;37.40
47576;DHT22;33304;52.456;13.328;2023-03-01T05:44:39;-0.60;36.70
47576;DHT22;33304;52.456;13.328;2023-03-01T05:47:07;-0.60;37.30
47576;DHT22;33304;52.456;13.328;2023-03-01T05:49:34;-0.40;37.00
47576;DHT22;33304;52.456;13.328;2023-03-01T05:52:01;-0.40;35.30
47576;DHT22;33304;52.456;13.328;2023-03-01T05:54:28;-0.50;36.90
47576;DHT22;33304;52.456;13.328;2023-03-01T05:56:55;-0.60;37.50
47576;DHT22;33304;52.456;13.328;2023-03-01T05:59:24;-0.80;37.30
47576;DHT22;33304;52.456;13.328;2023-03-01T06:01:51;-0.80;37.90
47576;DHT22;33304;52.456;13.328;2023-03-01T06:04:18;-0.90;37.80
47576;DHT22;33304;52.456;13.328;2023-03-01T06:06:45;-0.90;38.30
47576;DHT22;33304;52.456;13.328;2023-03-01T06:09:12;-0.80;38.40
47576;DHT22;33304;52.456;13.328;2023-03-01T06:11:40;-0.80;38.10
47576;DHT22;33304;52.456;13.328;2023-03-01T06:14:07;-0.80;38.10
47576;DHT22;33304;52.456;13.328;2023-03-01T06:16:37;-0.80;39.00
47576;DHT22;33304;52.456;13.328;2023-03-01T06:19:04;-0.60;39.60
47576;DHT22;33304;52.456;13.328;2023-03-01T06:21:31;-0.40;41.00
47576;DHT22;33304;52.456;13.328;2023-03-01T06:23:58;0.10;45.60
47576;DHT22;33304;52.456;13.328;2023-03-01T06:26:25;0.20;42.80
47576;DHT22;33304;52.456;13.328;2023-03-01T06:28:53;0.20;39.20
47576;DHT22;33304;52.456;13.328;2023-03-01T06:31:20;0.30;35.90
47576;DHT22;33304;52.456;13.328;2023-03-01T06:33:48;0.30;34.00
47576;DHT22;33304;52.456;13.328;2023-03-01T06:36:15;0.30;33.80
47576;DHT22;33304;52.456;13.328;2023-03-01T06:38:44;0.20;33.40
47576;DHT22;33304;52.456;13.328;2023-03-01T06:41:11;0.20;33.90
47576;DHT22;33304;52.456;13.328;2023-03-01T06:43:38;0.30;34.00
47576;DHT22;33304;52.456;13.328;2023-03-01T06:46:06;0.30;33.70
47576;DHT22;33304;52.456;13.328;2023-03-01T06:48:33;0.30;33.70
47576;DHT22;33304;52.456;13.328;2023-03-01T06:51:02;0.50;33.70
47576;DHT22;33304;52.456;13.328;2023-03-01T06:53:45;0.50;33.70
47576;DHT22;33304;52.456;13.328;2023-03-01T06:56:12;0.50;33.10
47576;DHT22;33304;52.456;13.328;2023-03-01T06:58:40;0.50;33.40
47576;DHT22;33304;52.456;13.328;2023-03-01T07:01:07;0.50;33.90
47576;DHT22;33304;52.456;13.328;2023-03-01T07:03:35;0.50;33.60
47576;DHT22;33304;52.456;13.328;2023-03-01T07:06:03;0.50;33.70
47576;DHT22;33304;52.456;13.328;2023-03-01T07:08:30;0.60;33.70
47576;DHT22;33304;52.456;13.328;2023-03-01T07:10:58;0.70;33.40
47576;DHT22;33304;52.456;13.328;2023-03-01T07:13:25;0.60;33.60
47576;DHT22;33304;52.456;13.328;2023-03-01T07:15:52;0.60;33.80
47576;DHT22;33304;52.456;13.328;2023-03-01T07:18:19;0.70;34.10
47576;DHT22;33304;52.456;13.328;2023-03-01T07:20:46;0.80;33.90
47576;DHT22;33304;52.456;13.328;2023-03-01T07:23:15;0.70;33.90
47576;DHT22;33304;52.456;13.328;2023-03-01T07:25:42;0.90;33.90
47576;DHT22;33304;52.456;13.328;2023-03-01T07:28:09;0.90;33.50
47576;DHT22;33304;52.456;13.328;2023-03-01T07:30:36;1.00;33.00
47576;DHT22;33304;52.456;13.328;2023-03-01T07:33:03;1.10;32.40
47576;DHT22;33304;52.456;13.328;2023-03-01T07:35:30;1.20;32.00
47576;DHT22;33304;52.456;13.328;2023-03-01T07:37:59;1.20;32.10
47576;DHT22;33304;52.456;13.328;2023-03-01T07:40:27;1.30;31.60
47576;DHT22;33304;52.456;13.328;2023-03-01T07:42:55;1.30;31.00
47576;DHT22;33304;52.456;13.328;2023-03-01T07:45:24;1.40;31.10
47576;DHT22;33304;52.456;13.328;2023-03-01T07:47:51;1.50;30.90
47576;DHT22;33304;52.456;13.328;2023-03-01T07:50:19;1.60;30.40
47576;DHT22;33304;52.456;13.328;2023-03-01T07:52:47;1.60;30.20
47576;DHT22;33304;52.456;13.328;2023-03-01T07:55:15;1.70;30.60
47576;DHT22;33304;52.456;13.328;2023-03-01T07:57:43;1.70;30.00
47576;DHT22;33304;52.456;13.328;2023-03-01T08:00:12;1.80;29.80
47576;DHT22;33304;52.456;13.328;2023-03-01T08:03:05;1.80;29.90
47576;DHT22;33304;52.456;13.328;2023-03-01T08:05:33;2.00;28.80
47576;DHT22;33304;52.456;13.328;2023-03-01T08:08:00;2.10;28.40
47576;DHT22;33304;52.456;13.328;2023-03-01T08:10:27;2.30;27.10
47576;DHT22;33304;52.456;13.328;2023-03-01T08:12:55;2.30;27.00
47576;DHT22;33304;52.456;13.328;2023-03-01T08:15:22;2.40;27.10
47576;DHT22;33304;52.456;13.328;2023-03-01T08:17:49;2.60;26.50
47576;DHT22;33304;52.456;13.328;2023-03-01T08:20:17;2.80;25.40
47576;DHT22;33304;52.456;13.328;2023-03-01T08:22:44;2.80;25.40
47576;DHT22;33304;52.456;13.328;2023-03-01T08:25:11;2.80;25.10
47576;DHT22;33304;52.456;13.328;2023-03-01T08:27:38;2.90;24.90
47576;DHT22;33304;52.456;13.328;2023-03-01T08:30:08;3.00;23.40
47576;DHT22;33304;52.456;13.328;2023-03-01T08:32:37;3.10;22.90
47576;DHT22;33304;52.456;13.328;2023-03-01T08:35:05;3.30;22.00
47576;DHT22;33304;52.456;13.328;2023-03-01T08:37:32;3.30;21.80
47576;DHT22;33304;52.456;13.328;2023-03-01T08:39:59;3.40;21.50
47576;DHT22;33304;52.456;13.328;2023-03-01T08:42:26;3.40;21.90
47576;DHT22;33304;52.456;13.328;2023-03-01T08:44:54;3.50;21.80
47576;DHT22;33304;52.456;13.328;2023-03-01T08:47:23;3.70;20.40
47576;DHT22;33304;52.456;13.328;2023-03-01T08:49:52;3.80;20.20
47576;DHT22;33304;52.456;13.328;2023-03-01T08:52:19;4.00;18.90
47576;DHT22;33304;52.456;13.328;2023-03-01T08:54:47;4.20;17.70
47576;DHT22;33304;52.456;13.328;2023-03-01T08:57:14;4.30;16.70
47576;DHT22;33304;52.456;13.328;2023-03-01T08:59:59;4.30;16.90
47576;DHT22;33304;52.456;13.328;2023-03-01T09:02:27;4.40;17.10
47576;DHT22;33304;52.456;13.328;2023-03-01T09:04:54;4.40;17.30
47576;DHT22;33304;52.456;13.328;2023-03-01T09:07:21;4.50;16.50
47576;DHT22;33304;52.456;13.328;2023-03-01T09:09:54;4.60;16.20
47576;DHT22;33304;52.456;13.328;2023-03-01T09:12:21;4.60;16.30
47576;DHT22;33304;52.456;13.328;2023-03-01T09:14:48;4.60;16.40
47576;DHT22;33304;52.456;13.328;2023-03-01T09:17:15;4.60;15.30
47576;DHT22;33304;52.456;13.328;2023-03-01T09:19:44;4.80;14.60
47576;DHT22;33304;52.456;13.328;2023-03-01T09:22:11;4.90;12.60
47576;DHT22;33304;52.456;13.328;2023-03-01T09:24:38;4.90;13.10
47576;DHT22;33304;52.456;13.328;2023-03-01T09:27:06;4.90;13.20
47576;DHT22;33304;52.456;13.328;2023-03-01T09:29:35;4.80;12.80
47576;DHT22;33304;52.456;13.328;2023-03-01T09:32:02;5.00;12.90
47576;DHT22;33304;52.456;13.328;2023-03-01T09:34:29;5.20;11.20
47576;DHT22;33304;52.456;13.328;2023-03-01T09:36:58;5.30;10.30
47576;DHT22;33304;52.456;13.328;2023-03-01T09:39:28;5.40;11.60
47576;DHT22;33304;52.456;13.328;2023-03-01T09:41:59;5.50;11.30
47576;DHT22;33304;52.456;13.328;2023-03-01T09:44:32;5.50;10.20
47576;DHT22;33304;52.456;13.328;2023-03-01T09:47:01;5.60;10.30
47576;DHT22;33304;52.456;13.328;2023-03-01T09:49:30;5.70;10.30
47576;DHT22;33304;52.456;13.328;2023-03-01T09:52:04;5.70;9.60
47576;DHT22;33304;52.456;13.328;2023-03-01T09:54:34;5.80;10.30
47576;DHT22;33304;52.456;13.328;2023-03-01T09:57:09;6.00;9.50
47576;DHT22;33304;52.456;13.328;2023-03-01T09:59:49;5.80;8.80
47576;DHT22;33304;52.456;13.328;2023-03-01T10:02:24;6.10;10.60
47576;DHT22;33304;52.456;13.328;2023-03-01T10:04:55;6.30;10.10
47576;DHT22;33304;52.456;13.328;2023-03-01T10:07:34;6.40;8.40
47576;DHT22;33304;52.456;13.328;2023-03-01T10:10:05;6.50;8.70
47576;DHT22;33304;52.456;13.328;2023-03-01T10:12:35;6.60;9.40
47576;DHT22;33304;52.456;13.328;2023-03-01T10:15:09;6.70;9.00
47576;DHT22;33304;52.456;13.328;2023-03-01T10:17:43;6.80;6.60
47576;DHT22;33304;52.456;13.328;2023-03-01T10:22:43;6.80;5.10
47576;DHT22;33304;52.456;13.328;2023-03-01T10:25:44;6.70;6.20
47576;DHT22;33304;52.456;13.328;2023-03-01T10:28:16;6.90;5.70
47576;DHT22;33304;52.456;13.328;2023-03-01T10:30:44;6.90;5.40
47576;DHT22;33304;52.456;13.328;2023-03-01T10:33:16;7.00;5.60
47576;DHT22;33304;52.456;13.328;2023-03-01T10:35:44;7.20;5.70
47576;DHT22;33304;52.456;13.328;2023-03-01T10:38:15;7.30;5.30
47576;DHT22;33304;52.456;13.328;2023-03-01T10:40:52;7.40;5.70
47576;DHT22;33304;52.456;13.328;2023-03-01T10:43:20;7.60;4.50
47576;DHT22;33304;52.456;13.328;2023-03-01T10:45:47;7.70;3.70
47576;DHT22;33304;52.456;13.328;2023-03-01T10:48:17;7.70;2.60
47576;DHT22;33304;52.456;13.328;2023-03-01T10:50:46;7.80;2.90
47576;DHT22;33304;52.456;13.328;2023-03-01T10:53:23;7.90;3.50
47576;DHT22;33304;52.456;13.328;2023-03-01T10:56:03;8.10;3.80
47576;DHT22;33304;52.456;13.328;2023-03-01T10:58:33;8.20;1.90
47576;DHT22;33304;52.456;13.328;2023-03-01T11:01:01;8.00;1.70
47576;DHT22;33304;52.456;13.328;2023-03-01T11:03:30;7.80;1.70
47576;DHT22;33304;52.456;13.328;2023-03-01T11:06:01;7.80;2.00
47576;DHT22;33304;52.456;13.328;2023-03-01T11:08:36;8.10;1.80
47576;DHT22;33304;52.456;13.328;2023-03-01T11:11:06;8.30;2.00
47576;DHT22;33304;52.456;13.328;2023-03-01T11:13:35;8.50;1.80
47576;DHT22;33304;52.456;13.328;2023-03-01T11:16:03;8.60;1.40
47576;DHT22;33304;52.456;13.328;2023-03-01T11:18:32;8.60;1.00
47576;DHT22;33304;52.456;13.328;2023-03-01T11:21:01;8.50;1.00
47576;DHT22;33304;52.456;13.328;2023-03-01T11:23:30;8.60;1.00
47576;DHT22;33304;52.456;13.328;2023-03-01T11:26:02;8.50;1.00
47576;DHT22;33304;52.456;13.328;2023-03-01T11:28:32;8.20;1.00
47576;DHT22;33304;52.456;13.328;2023-03-01T11:31:03;8.40;2.10
47576;DHT22;33304;52.456;13.328;2023-03-01T11:33:37;8.30;2.00
47576;DHT22;33304;52.456;13.328;2023-03-01T11:36:11;8.50;1.90
47576;DHT22;33304;52.456;13.328;2023-03-01T11:38:40;8.80;1.10
47576;DHT22;33304;52.456;13.328;2023-03-01T11:41:14;8.90;2.30
47576;DHT22;33304;52.456;13.328;2023-03-01T11:43:49;9.20;1.10
47576;DHT22;33304;52.456;13.328;2023-03-01T11:46:46;9.50;1.00
47576;DHT22;33304;52.456;13.328;2023-03-01T11:49:40;9.80;1.00
47576;DHT22;33304;52.456;13.328;2023-03-01T11:52:20;10.00;1.00
47576;DHT22;33304;52.456;13.328;2023-03-01T11:54:58;10.00;1.00
47576;DHT22;33304;52.456;13.328;2023-03-01T11:57:43;10.10;1.00
47576;DHT22;33304;52.456;13.328;2023-03-01T12:00:36;10.40;1.00
47576;DHT22;33304;52.456;13.328;2023-03-01T12:03:27;10.60;1.00
47576;DHT22;33304;52.456;13.328;2023-03-01T12:06:23;10.70;1.00
47576;DHT22;33304;52.456;13.328;2023-03-01T12:09:06;10.80;1.00
47576;DHT22;33304;52.456;13.328;2023-03-01T12:11:52;11.00;1.00
47576;DHT22;33304;52.456;13.328;2023-03-01T12:14:40;10.50;1.00
47576;DHT22;33304;52.456;13.328;2023-03-01T12:17:31;10.90;1.00
47576;DHT22;33304;52.456;13.328;2023-03-01T12:20:20;11.00;1.00
47576;DHT22;33304;52.456;13.328;2023-03-01T12:23:03;11.10;1.00
47576;DHT22;33304;52.456;13.328;2023-03-01T12:25:36;10.70;1.00
47576;DHT22;33304;52.456;13.328;2023-03-01T12:28:32;10.50;1.00
47576;DHT22;33304;52.456;13.328;2023-03-01T12:31:29;10.80;1.00
47576;DHT22;33304;52.456;13.328;2023-03-01T12:34:03;11.40;1.00
47576;DHT22;33304;52.456;13.328;2023-03-01T12:36:48;11.20;1.00
47576;DHT22;33304;52.456;13.328;2023-03-01T12:39:30;10.50;1.00
47576;DHT22;33304;52.456;13.328;2023-03-01T12:42:06;10.80;1.00
47576;DHT22;33304;52.456;13.328;2023-03-01T12:44:47;11.50;1.00
47576;DHT22;33304;52.456;13.328;2023-03-01T12:47:34;12.10;1.00
47576;DHT22;33304;52.456;13.328;2023-03-01T12:50:04;12.50;1.00
47576;DHT22;33304;52.456;13.328;2023-03-01T12:52:41;12.70;1.00
